Terminal Aerodrome Forecast
Issued by NWS

Home | Current Version | Previous Version | Text Only | Print | Product List | Glossary On
Versions: 1 2 3 4 5 6 7 8 9 10 11 12 13 14 15 16 17 18 19 20
000
FTUS42 KTBW 182300
TAFPIE
TAF
KPIE 182336Z 1900/1924 32005KT P6SM BKN250
     FM190200 34003KT P6SM SCT250
      TEMPO 1909/1912 5SM BR
     FM191300 05004KT P6SM FEW150 SCT250=

USA.gov is the U.S. government's official web portal to all federal, state and local government web resources and services.